Time;durP1;ratioP1;P1;durP2;ratioP2;P2;SDS_P1;SDS_P2;PMS_P1;PMS_P2;Temp;Humidity;BMP_temperature;BMP_pressure;BME280_temperature;BME280_humidity;BME280_pressure;Samples;Min_cycle;Max_cycle;Signal;HPM_P1;HPM_P2
2021/10/02 00:45:56;;;;;;;0.75;0.30;;;;;;;-142.37;100.00;59669.53;4976811;28;20461;-71
2021/10/02 00:48:30;;;;;;;0.43;0.22;;;;;;;-142.37;100.00;59669.53;4976454;28;20379;-73
2021/10/02 00:51:01;;;;;;;1.38;0.20;;;;;;;-142.37;100.00;59669.53;4976474;28;20386;-71
2021/10/02 00:53:35;;;;;;;0.80;0.30;;;;;;;-142.37;100.00;59669.53;4979530;28;20031;-73
2021/10/02 00:56:01;;;;;;;;;;;;;;;-142.37;100.00;59669.53;4975432;28;20019;-71
2021/10/02 00:58:34;;;;;;;0.95;0.20;;;;;;;-142.37;100.00;59669.53;4976308;28;19910;-74
2021/10/02 01:01:03;;;;;;;0.95;0.13;;;;;;;-142.37;100.00;59669.53;4976210;28;20077;-72
2021/10/02 01:04:16;;;;;;;0.40;0.30;;;;;;;-142.37;100.00;59669.53;4976311;28;20025;-72
2021/10/02 01:06:53;;;;;;;0.60;0.25;;;;;;;-142.37;100.00;59669.53;4935774;29;20028;-71
2021/10/02 01:09:47;;;;;;;0.85;0.52;;;;;;;-142.37;100.00;59669.53;4935535;29;20030;-72
2021/10/02 01:13:06;;;;;;;1.23;0.40;;;;;;;-142.37;100.00;59669.53;4935062;29;20040;-73
2021/10/02 01:15:50;;;;;;;0.77;0.25;;;;;;;-142.37;100.00;59669.53;4935357;29;20484;-73
2021/10/02 01:18:35;;;;;;;0.57;0.30;;;;;;;-142.37;100.00;59669.53;4935612;29;20099;-71
2021/10/02 01:21:37;;;;;;;1.58;0.22;;;;;;;-142.37;100.00;59669.53;4935262;29;20042;-74
2021/10/02 01:27:47;;;;;;;1.45;0.30;;;;;;;-142.37;100.00;59669.53;4935580;29;20082;-71
2021/10/02 01:30:26;;;;;;;1.17;0.30;;;;;;;-142.37;100.00;59669.53;4935238;29;20062;-71
2021/10/02 01:33:08;;;;;;;2.47;0.40;;;;;;;-142.37;100.00;59669.53;4935277;29;20024;-72
2021/10/02 01:47:12;;;;;;;0.80;0.30;;;;;;;-142.37;100.00;59669.53;4975728;28;20065;-73
2021/10/02 01:49:57;;;;;;;1.20;0.30;;;;;;;-142.37;100.00;59669.53;4975406;28;20050;-70
2021/10/02 01:52:42;;;;;;;0.45;0.40;;;;;;;-142.37;100.00;59669.53;4974131;28;20022;-71
2021/10/02 01:55:10;;;;;;;1.08;0.20;;;;;;;-142.37;100.00;59669.53;4975501;28;20026;-72
2021/10/02 01:57:39;;;;;;;1.48;0.20;;;;;;;-142.37;100.00;59669.53;4975415;28;20038;-71
2021/10/02 02:00:09;;;;;;;0.25;0.20;;;;;;;-142.37;100.00;59669.53;4974231;28;20031;-72
2021/10/02 02:02:42;;;;;;;1.00;0.30;;;;;;;-142.37;100.00;59669.53;4975229;28;20034;-70
2021/10/02 02:05:10;;;;;;;0.55;0.10;;;;;;;-142.37;100.00;59669.53;4975309;28;20027;-73
2021/10/02 02:07:48;;;;;;;0.60;0.40;;;;;;;-142.37;100.00;59669.53;4974059;28;20035;-71
2021/10/02 02:10:23;;;;;;;0.50;0.20;;;;;;;-142.37;100.00;59669.53;4975336;28;20761;-72
2021/10/02 02:12:50;;;;;;;0.52;0.20;;;;;;;-142.37;100.00;59669.53;4974265;28;20054;-71
2021/10/02 02:15:16;;;;;;;1.67;0.30;;;;;;;-142.37;100.00;59669.53;4990955;28;20074;-72
2021/10/02 02:17:58;;;;;;;2.15;0.45;;;;;;;-142.37;100.00;59669.53;4994589;28;20077;-71
2021/10/02 02:20:59;;;;;;;0.45;0.25;;;;;;;-142.37;100.00;59669.53;4996015;28;20026;-73
2021/10/02 02:23:29;;;;;;;0.70;0.35;;;;;;;-142.37;100.00;59669.53;4980661;28;20038;-71
2021/10/02 02:26:00;;;;;;;0.90;0.28;;;;;;;-142.37;100.00;59669.53;4998489;28;20048;-72
2021/10/02 02:28:43;;;;;;;1.52;0.57;;;;;;;-142.37;100.00;59669.53;4998493;28;20104;-70
2021/10/02 02:31:19;;;;;;;2.10;0.32;;;;;;;-142.37;100.00;59669.53;4998382;28;20026;-71
2021/10/02 02:33:54;;;;;;;0.68;0.30;;;;;;;-142.37;100.00;59669.53;4998582;28;20037;-72
2021/10/02 02:36:22;;;;;;;0.63;0.20;;;;;;;-142.37;100.00;59669.53;4980888;28;20018;-71
2021/10/02 02:38:50;;;;;;;0.77;0.10;;;;;;;-142.37;100.00;59669.53;4998314;28;20030;-72
2021/10/02 02:41:16;;;;;;;0.52;0.20;;;;;;;-142.37;100.00;59669.53;4998184;28;20022;-71
2021/10/02 02:43:55;;;;;;;0.82;0.30;;;;;;;-142.37;100.00;59669.53;4998175;28;20026;-70
2021/10/02 02:46:47;;;;;;;1.15;0.32;;;;;;;-142.37;100.00;59669.53;4998078;28;20034;-72
2021/10/02 02:49:32;;;;;;;0.95;0.28;;;;;;;-142.37;100.00;59669.53;4998594;28;20076;-73
2021/10/02 02:52:07;;;;;;;2.20;0.10;;;;;;;-142.37;100.00;59669.53;4998489;28;20019;-71
2021/10/02 02:55:06;;;;;;;1.65;0.10;;;;;;;-142.37;100.00;59669.53;4998166;28;20052;-72
2021/10/02 02:57:43;;;;;;;1.17;0.13;;;;;;;-142.37;100.00;59669.53;4937887;29;20050;-70
2021/10/02 03:00:24;;;;;;;0.17;0.17;;;;;;;-142.37;100.00;59669.53;4938049;29;20040;-72
2021/10/02 03:03:28;;;;;;;0.43;0.10;;;;;;;-142.37;100.00;59669.53;4937897;29;20479;-71
2021/10/02 03:06:14;;;;;;;0.10;0.10;;;;;;;-142.37;100.00;59669.53;4865710;29;20060;-71
2021/10/02 03:08:43;;;;;;;0.73;0.30;;;;;;;-142.37;100.00;59669.53;4880946;29;20056;-70
2021/10/02 03:11:21;;;;;;;1.30;0.20;;;;;;;-142.37;100.00;59669.53;4865657;29;20025;-70
2021/10/02 03:13:50;;;;;;;0.40;0.25;;;;;;;-142.37;100.00;59669.53;4880790;29;22369;-72
2021/10/02 03:16:18;;;;;;;0.88;0.20;;;;;;;-142.37;100.00;59669.53;4881158;29;20144;-70
2021/10/02 03:18:49;;;;;;;0.68;0.10;;;;;;;-142.37;100.00;59669.53;4866385;29;20033;-73
2021/10/02 03:21:16;;;;;;;0.77;0.50;;;;;;;-142.37;100.00;59669.53;4881592;29;20075;-70
2021/10/02 03:23:59;;;;;;;0.73;0.13;;;;;;;-142.37;100.00;59669.53;4880909;29;20037;-72
2021/10/02 03:26:26;;;;;;;1.20;0.30;;;;;;;-142.37;100.00;59669.53;4880857;29;20045;-71
2021/10/02 03:28:53;;;;;;;0.30;0.30;;;;;;;-142.37;100.00;59669.53;4881240;29;20450;-72
2021/10/02 03:31:20;;;;;;;1.27;0.20;;;;;;;-142.37;100.00;59669.53;4880860;29;20400;-71
2021/10/02 03:34:24;;;;;;;0.65;0.20;;;;;;;-142.37;100.00;59669.53;4905808;29;20082;-71
2021/10/02 03:37:02;;;;;;;0.35;0.20;;;;;;;-142.37;100.00;59669.53;4937333;29;20033;-71
2021/10/02 03:39:36;;;;;;;0.20;0.10;;;;;;;-142.37;100.00;59669.53;4951427;28;20071;-73
2021/10/02 03:42:20;;;;;;;0.65;0.10;;;;;;;-142.37;100.00;59669.53;4976443;28;20037;-72
2021/10/02 03:45:07;;;;;;;0.68;0.20;;;;;;;-142.37;100.00;59669.53;4977769;28;20050;-74
2021/10/02 03:47:34;;;;;;;0.88;0.30;;;;;;;-142.37;100.00;59669.53;4977702;28;20074;-70
2021/10/02 03:50:26;;;;;;;0.55;0.22;;;;;;;-142.37;100.00;59669.53;4978048;28;20069;-73
2021/10/02 03:52:53;;;;;;;1.15;0.22;;;;;;;-142.37;100.00;59669.53;4918297;29;20036;-71
2021/10/02 03:55:31;;;;;;;0.93;0.20;;;;;;;-142.37;100.00;59669.53;4918133;29;20036;-73
2021/10/02 03:58:05;;;;;;;0.70;0.20;;;;;;;-142.37;100.00;59669.53;4918058;29;20136;-72
2021/10/02 04:00:31;;;;;;;1.90;0.20;;;;;;;-142.37;100.00;59669.53;4917927;29;20039;-73
2021/10/02 04:02:57;;;;;;;1.45;0.20;;;;;;;-142.37;100.00;59669.53;4917919;29;20040;-71
2021/10/02 04:05:40;;;;;;;1.55;0.20;;;;;;;-142.37;100.00;59669.53;4917946;29;20024;-73
2021/10/02 04:08:15;;;;;;;0.63;0.50;;;;;;;-142.37;100.00;59669.53;4917784;29;20032;-71
2021/10/02 04:10:40;;;;;;;2.83;0.40;;;;;;;-142.37;100.00;59669.53;4917798;29;20099;-74
2021/10/02 04:13:57;;;;;;;1.17;0.38;;;;;;;-142.37;100.00;59669.53;4917776;29;20051;-71
2021/10/02 04:16:23;;;;;;;0.65;0.20;;;;;;;-142.37;100.00;59669.53;4861434;29;20139;-72
2021/10/02 04:19:02;;;;;;;1.10;0.60;;;;;;;-142.37;100.00;59669.53;4862536;29;20045;-73
2021/10/02 04:21:29;;;;;;;0.52;0.25;;;;;;;-142.37;100.00;59669.53;4861354;29;20037;-71
2021/10/02 04:24:05;;;;;;;1.15;0.30;;;;;;;-142.37;100.00;59669.53;4861352;29;20135;-73
2021/10/02 04:26:40;;;;;;;1.02;0.38;;;;;;;-142.37;100.00;59669.53;4861172;29;20051;-71
2021/10/02 04:29:36;;;;;;;0.82;0.35;;;;;;;-142.37;100.00;59669.53;4881448;29;20043;-73
2021/10/02 04:32:10;;;;;;;1.33;0.30;;;;;;;-142.37;100.00;59669.53;4936381;29;20035;-70
2021/10/02 04:34:36;;;;;;;1.48;0.20;;;;;;;-142.37;100.00;59669.53;4936369;29;20104;-72
2021/10/02 04:37:02;;;;;;;0.90;0.50;;;;;;;-142.37;100.00;59669.53;4936407;29;20036;-70
2021/10/02 04:39:40;;;;;;;0.80;0.10;;;;;;;-142.37;100.00;59669.53;4936235;29;20036;-72
2021/10/02 04:42:16;;;;;;;0.63;0.40;;;;;;;-142.37;100.00;59669.53;4936003;29;20054;-71
2021/10/02 04:44:44;;;;;;;0.90;0.45;;;;;;;-142.37;100.00;59669.53;4920277;29;20039;-72
2021/10/02 04:47:12;;;;;;;0.20;0.20;;;;;;;-142.37;100.00;59669.53;4937006;29;20399;-70
2021/10/02 04:49:38;;;;;;;1.10;0.30;;;;;;;-142.37;100.00;59669.53;4920122;29;20036;-73
2021/10/02 04:52:03;;;;;;;0.68;0.20;;;;;;;-142.37;100.00;59669.53;4947374;29;20143;-70
2021/10/02 04:54:50;;;;;;;1.60;0.45;;;;;;;-142.37;100.00;59669.53;4957056;28;20031;-72
2021/10/02 04:57:32;;;;;;;0.30;0.25;;;;;;;-142.37;100.00;59669.53;4957153;29;20046;-72
2021/10/02 05:00:04;;;;;;;0.55;0.25;;;;;;;-142.37;100.00;59669.53;4957109;29;20522;-72
2021/10/02 05:02:42;;;;;;;0.45;0.20;;;;;;;-142.37;100.00;59669.53;4955563;29;20038;-72
2021/10/02 05:05:09;;;;;;;0.70;0.40;;;;;;;-142.37;100.00;59669.53;4957052;29;20066;-73
2021/10/02 05:07:36;;;;;;;0.35;0.30;;;;;;;-142.37;100.00;59669.53;4956876;28;20031;-71
2021/10/02 05:10:06;;;;;;;0.35;0.20;;;;;;;-142.37;100.00;59669.53;4957099;29;20063;-72
2021/10/02 05:12:31;;;;;;;0.13;0.10;;;;;;;-142.37;100.00;59669.53;4955384;28;20023;-71
2021/10/02 05:14:56;;;;;;;0.47;0.20;;;;;;;-142.37;100.00;59669.53;4983248;28;20050;-71
2021/10/02 05:17:22;;;;;;;0.30;0.20;;;;;;;-142.37;100.00;59669.53;4995409;28;20460;-73
2021/10/02 05:19:50;;;;;;;1.35;0.30;;;;;;;-142.37;100.00;59669.53;4977966;28;20053;-71
2021/10/02 05:22:23;;;;;;;0.20;0.15;;;;;;;-142.37;100.00;59669.53;4977773;28;20026;-73
2021/10/02 05:24:49;;;;;;;0.25;0.17;;;;;;;-142.37;100.00;59669.53;4977841;28;20466;-72
2021/10/02 05:27:42;;;;;;;1.05;0.10;;;;;;;-142.37;100.00;59669.53;4995301;28;20040;-74
2021/10/02 05:30:08;;;;;;;1.08;0.20;;;;;;;-142.37;100.00;59669.53;4934989;29;20040;-70
2021/10/02 05:32:34;;;;;;;0.68;0.25;;;;;;;-142.37;100.00;59669.53;4935205;29;20043;-74
2021/10/02 05:35:02;;;;;;;0.90;0.20;;;;;;;-142.37;100.00;59669.53;4935358;29;20045;-72
2021/10/02 05:37:28;;;;;;;0.90;0.43;;;;;;;-142.37;100.00;59669.53;4935112;29;20212;-70
2021/10/02 05:39:54;;;;;;;0.57;0.20;;;;;;;-142.37;100.00;59669.53;4935408;29;20192;-73
2021/10/02 05:42:32;;;;;;;0.10;0.10;;;;;;;-142.37;100.00;59669.53;4935164;29;20495;-71
2021/10/02 05:44:57;;;;;;;0.20;0.10;;;;;;;-142.37;100.00;59669.53;4936393;29;20200;-73
2021/10/02 05:47:23;;;;;;;0.20;0.20;;;;;;;-142.37;100.00;59669.53;4937874;29;20093;-71
2021/10/02 05:49:50;;;;;;;0.25;0.03;;;;;;;-142.37;100.00;59669.53;4935076;29;20356;-72
2021/10/02 05:52:18;;;;;;;0.77;0.45;;;;;;;-142.37;100.00;59669.53;4935147;29;20391;-72
2021/10/02 05:54:45;;;;;;;0.40;0.40;;;;;;;-142.37;100.00;59669.53;4934954;29;20043;-72
2021/10/02 05:57:23;;;;;;;0.20;0.17;;;;;;;-142.37;100.00;59669.53;4934702;29;20399;-72
2021/10/02 05:59:50;;;;;;;0.95;0.30;;;;;;;-142.37;100.00;59669.53;4934795;29;20130;-71
2021/10/02 06:02:17;;;;;;;0.38;0.10;;;;;;;-142.37;100.00;59669.53;4934875;29;20063;-73
2021/10/02 06:04:51;;;;;;;1.13;0.22;;;;;;;-142.37;100.00;59669.53;4918801;29;20031;-69
2021/10/02 06:07:19;;;;;;;;;;;;;;;-142.37;100.00;59669.53;4951665;28;20359;-73
2021/10/02 06:09:57;;;;;;;0.20;0.20;;;;;;;-142.37;100.00;59669.53;4975408;28;19910;-71
2021/10/02 06:12:52;;;;;;;0.45;0.22;;;;;;;-142.37;100.00;59669.53;4976842;28;20015;-72
2021/10/02 06:15:17;;;;;;;0.60;0.20;;;;;;;-142.37;100.00;59669.53;4975049;28;20051;-71
2021/10/02 06:17:44;;;;;;;0.38;0.20;;;;;;;-142.37;100.00;59669.53;4975639;28;20051;-72
2021/10/02 06:20:10;;;;;;;2.20;0.20;;;;;;;-142.37;100.00;59669.53;4975137;28;20106;-71
2021/10/02 06:22:42;;;;;;;0.43;0.20;;;;;;;-142.37;100.00;59669.53;4975037;28;20028;-72
2021/10/02 06:25:09;;;;;;;1.45;0.20;;;;;;;-142.37;100.00;59669.53;4957689;28;20465;-71
2021/10/02 06:28:05;;;;;;;0.20;0.20;;;;;;;-142.37;100.00;59669.53;4957727;28;20038;-71
2021/10/02 06:30:31;;;;;;;0.73;0.30;;;;;;;-142.37;100.00;59669.53;4974996;28;20023;-70
2021/10/02 06:32:59;;;;;;;0.60;0.20;;;;;;;-142.37;100.00;59669.53;4974891;28;20581;-73
2021/10/02 06:35:27;;;;;;;1.38;0.30;;;;;;;-142.37;100.00;59669.53;4975030;28;20027;-70
2021/10/02 06:38:18;;;;;;;0.50;0.15;;;;;;;-142.37;100.00;59669.53;4975879;28;20054;-73
2021/10/02 06:40:54;;;;;;;1.08;0.10;;;;;;;-142.37;100.00;59669.53;4974939;28;20070;-73
2021/10/02 06:43:21;;;;;;;2.20;0.30;;;;;;;-142.37;100.00;59669.53;4974933;28;20644;-72
2021/10/02 06:45:48;;;;;;;0.22;0.20;;;;;;;-142.37;100.00;59669.53;4974871;28;20023;-70
2021/10/02 06:48:26;;;;;;;0.68;0.28;;;;;;;-142.37;100.00;59669.53;4974978;28;20030;-74
2021/10/02 06:50:52;;;;;;;0.73;0.30;;;;;;;-142.37;100.00;59669.53;4975274;28;20542;-70
2021/10/02 06:53:18;;;;;;;0.85;0.30;;;;;;;-142.37;100.00;59669.53;4974895;28;20130;-73
2021/10/02 06:55:58;;;;;;;0.82;0.20;;;;;;;-142.37;100.00;59669.53;4974971;28;20031;-73
2021/10/02 06:58:26;;;;;;;0.95;0.28;;;;;;;-142.37;100.00;59669.53;4974864;28;20161;-72
2021/10/02 07:01:23;;;;;;;2.20;0.60;;;;;;;-142.37;100.00;59669.53;4974941;28;20452;-72
2021/10/02 07:03:51;;;;;;;1.00;0.25;;;;;;;-142.37;100.00;59669.53;4936689;29;20040;-72
2021/10/02 07:06:29;;;;;;;0.77;0.20;;;;;;;-142.37;100.00;59669.53;4934328;29;20066;-72
2021/10/02 07:08:56;;;;;;;0.50;0.20;;;;;;;-142.37;100.00;59669.53;4935282;29;20028;-73
2021/10/02 07:11:23;;;;;;;0.40;0.10;;;;;;;-142.37;100.00;59669.53;4937493;29;20442;-72
2021/10/02 07:13:48;;;;;;;0.75;0.20;;;;;;;-142.37;100.00;59669.53;4899136;29;20422;-72
2021/10/02 07:16:13;;;;;;;0.88;0.28;;;;;;;-142.37;100.00;59669.53;4899402;29;20040;-71
2021/10/02 07:18:39;;;;;;;0.30;0.20;;;;;;;-142.37;100.00;59669.53;4899559;29;20493;-72
2021/10/02 07:21:05;;;;;;;0.77;0.10;;;;;;;-142.37;100.00;59669.53;4899195;29;20055;-72
2021/10/02 07:23:32;;;;;;;1.13;0.47;;;;;;;-142.37;100.00;59669.53;4899521;29;20137;-71
2021/10/02 07:26:00;;;;;;;0.73;0.17;;;;;;;-142.37;100.00;59669.53;4899463;29;20451;-72
2021/10/02 07:28:27;;;;;;;0.20;0.08;;;;;;;-142.37;100.00;59669.53;4883763;29;20038;-72
2021/10/02 07:30:53;;;;;;;0.68;0.15;;;;;;;-142.37;100.00;59669.53;4899439;29;20052;-71
2021/10/02 07:33:18;;;;;;;0.55;0.10;;;;;;;-142.37;100.00;59669.53;4899033;29;20725;-71
2021/10/02 07:35:44;;;;;;;0.30;0.10;;;;;;;-142.37;100.00;59669.53;4899299;29;20032;-71
2021/10/02 07:38:12;;;;;;;0.60;0.40;;;;;;;-142.37;100.00;59669.53;4898979;29;20541;-71
2021/10/02 07:40:43;;;;;;;0.52;0.20;;;;;;;-142.37;100.00;59669.53;4957113;29;20031;-71
2021/10/02 07:43:12;;;;;;;0.47;0.22;;;;;;;-142.37;100.00;59669.53;4958183;28;20107;-72
2021/10/02 07:45:37;;;;;;;1.05;0.25;;;;;;;-142.37;100.00;59669.53;4974344;28;20109;-72
2021/10/02 07:48:04;;;;;;;0.30;0.20;;;;;;;-142.37;100.00;59669.53;4977073;28;20070;-73
2021/10/02 07:50:31;;;;;;;0.47;0.13;;;;;;;-142.37;100.00;59669.53;4977263;28;20035;-72
2021/10/02 07:52:59;;;;;;;0.75;0.20;;;;;;;-142.37;100.00;59669.53;4977186;28;20103;-71
2021/10/02 07:55:26;;;;;;;0.40;0.20;;;;;;;-142.37;100.00;59669.53;4976977;28;20102;-71
2021/10/02 07:57:52;;;;;;;0.10;0.10;;;;;;;-142.37;100.00;59669.53;4977148;28;20027;-72
2021/10/02 08:00:20;;;;;;;0.63;0.30;;;;;;;-142.37;100.00;59669.53;4976764;28;20026;-71
2021/10/02 08:02:48;;;;;;;1.30;0.60;;;;;;;-142.37;100.00;59669.53;4976853;28;20066;-71
2021/10/02 08:05:16;;;;;;;0.73;0.30;;;;;;;-142.37;100.00;59669.53;4976840;28;20073;-71
2021/10/02 08:07:43;;;;;;;0.70;0.20;;;;;;;-142.37;100.00;59669.53;4976684;28;20019;-71
2021/10/02 08:10:12;;;;;;;0.65;0.20;;;;;;;-142.37;100.00;59669.53;4976537;28;20496;-70
2021/10/02 08:12:40;;;;;;;0.32;0.28;;;;;;;-142.37;100.00;59669.53;4976696;28;20780;-71
2021/10/02 08:15:08;;;;;;;0.95;0.20;;;;;;;-142.37;100.00;59669.53;4987085;28;20046;-71
2021/10/02 08:17:35;;;;;;;0.20;0.05;;;;;;;-142.37;100.00;59669.53;4995950;28;20023;-71
2021/10/02 08:20:11;;;;;;;0.32;0.10;;;;;;;-142.37;100.00;59669.53;4995781;28;20030;-71
2021/10/02 08:22:43;;;;;;;0.40;0.10;;;;;;;-142.37;100.00;59669.53;4995906;28;20026;-70
2021/10/02 08:25:16;;;;;;;0.82;0.13;;;;;;;-142.37;100.00;59669.53;4995801;28;20029;-72
2021/10/02 08:27:43;;;;;;;0.35;0.20;;;;;;;-142.37;100.00;59669.53;4978447;28;20026;-71
2021/10/02 08:30:10;;;;;;;0.50;0.20;;;;;;;-142.37;100.00;59669.53;4995635;28;20457;-71
2021/10/02 08:32:37;;;;;;;0.95;0.30;;;;;;;-142.37;100.00;59669.53;4978409;28;20041;-71
2021/10/02 08:35:05;;;;;;;1.45;0.55;;;;;;;-142.37;100.00;59669.53;4995490;28;20065;-71
2021/10/02 08:37:36;;;;;;;0.52;0.30;;;;;;;-142.37;100.00;59669.53;4995601;28;20054;-70
2021/10/02 08:40:06;;;;;;;0.35;0.10;;;;;;;-142.37;100.00;59669.53;4995625;28;20108;-72
2021/10/02 08:42:43;;;;;;;0.93;0.40;;;;;;;-142.37;100.00;59669.53;4995510;28;20041;-71
2021/10/02 08:45:09;;;;;;;0.45;0.22;;;;;;;-142.37;100.00;59669.53;4995161;28;20113;-71
2021/10/02 08:47:38;;;;;;;0.35;0.20;;;;;;;-142.37;100.00;59669.53;4995505;28;20042;-71
2021/10/02 08:50:05;;;;;;;0.63;0.40;;;;;;;-142.37;100.00;59669.53;4995193;28;20096;-71
2021/10/02 08:52:31;;;;;;;1.48;0.10;;;;;;;-142.37;100.00;59669.53;4995193;28;20351;-70
2021/10/02 08:54:58;;;;;;;0.85;0.30;;;;;;;-142.37;100.00;59669.53;4995392;28;20033;-72
2021/10/02 08:57:27;;;;;;;0.52;0.20;;;;;;;-142.37;100.00;59669.53;4995147;28;20033;-71
2021/10/02 08:59:56;;;;;;;0.30;0.30;;;;;;;-142.37;100.00;59669.53;4995380;28;20030;-71
2021/10/02 09:02:32;;;;;;;1.13;0.20;;;;;;;-142.37;100.00;59669.53;4995192;28;20377;-72
2021/10/02 09:05:00;;;;;;;0.22;0.08;;;;;;;-142.37;100.00;59669.53;4995197;28;20030;-71
2021/10/02 09:07:33;;;;;;;0.47;0.10;;;;;;;-142.37;100.00;59669.53;4995028;28;20041;-71
2021/10/02 09:10:02;;;;;;;1.17;0.28;;;;;;;-142.37;100.00;59669.53;4995161;28;20364;-71
2021/10/02 09:12:28;;;;;;;0.13;0.10;;;;;;;-142.37;100.00;59669.53;4977612;28;20089;-70
2021/10/02 09:14:54;;;;;;;1.08;0.40;;;;;;;-142.37;100.00;59669.53;4977362;28;20053;-71
2021/10/02 09:17:20;;;;;;;0.10;0.10;;;;;;;-142.37;100.00;59669.53;4994895;28;20018;-71
2021/10/02 09:19:46;;;;;;;0.75;0.17;;;;;;;-142.37;100.00;59669.53;4977600;28;20070;-72
2021/10/02 09:22:13;;;;;;;0.93;0.10;;;;;;;-142.37;100.00;59669.53;4975601;28;20019;-71
2021/10/02 09:24:43;;;;;;;1.33;0.28;;;;;;;-142.37;100.00;59669.53;4975364;28;20473;-72
2021/10/02 09:27:18;;;;;;;2.05;0.65;;;;;;;-142.37;100.00;59669.53;4957989;28;20056;-71
2021/10/02 09:29:50;;;;;;;1.02;0.30;;;;;;;-142.37;100.00;59669.53;4975469;28;20027;-71
2021/10/02 09:32:18;;;;;;;0.20;0.20;;;;;;;-142.37;100.00;59669.53;4973552;28;20046;-71
2021/10/02 09:34:54;;;;;;;0.98;0.40;;;;;;;-142.37;100.00;59669.53;4975189;28;20035;-71
2021/10/02 09:37:41;;;;;;;0.30;0.13;;;;;;;-142.37;100.00;59669.53;4975156;28;20023;-71
2021/10/02 09:40:17;;;;;;;1.17;0.15;;;;;;;-142.37;100.00;59669.53;4975217;28;20026;-72
2021/10/02 09:42:45;;;;;;;0.10;0.10;;;;;;;-142.37;100.00;59669.53;4975081;28;20070;-71
2021/10/02 09:45:15;;;;;;;0.45;0.43;;;;;;;-142.37;100.00;59669.53;4970387;28;20026;-71
2021/10/02 09:47:42;;;;;;;0.40;0.40;;;;;;;-142.37;100.00;59669.53;4994222;28;20026;-71
2021/10/02 09:50:13;;;;;;;0.80;0.20;;;;;;;-142.37;100.00;59669.53;4994100;28;20421;-70
2021/10/02 09:52:42;;;;;;;0.22;0.10;;;;;;;-142.37;100.00;59669.53;4994293;28;20022;-71
2021/10/02 09:55:44;;;;;;;0.10;0.10;;;;;;;-142.37;100.00;59669.53;4994461;28;20026;-71
2021/10/02 09:58:15;;;;;;;0.75;0.15;;;;;;;-142.37;100.00;59669.53;4915334;29;20032;-76
2021/10/02 10:00:45;;;;;;;0.38;0.20;;;;;;;-142.37;100.00;59669.53;4915357;29;20074;-71
2021/10/02 10:03:12;;;;;;;0.88;0.20;;;;;;;-142.37;100.00;59669.53;4915307;29;20036;-72
2021/10/02 10:05:43;;;;;;;0.20;0.20;;;;;;;-142.37;100.00;59669.53;4915076;29;20051;-71
2021/10/02 10:08:12;;;;;;;0.47;0.45;;;;;;;-142.37;100.00;59669.53;4914904;29;20521;-70
2021/10/02 10:10:41;;;;;;;1.20;0.25;;;;;;;-142.37;100.00;59669.53;4915371;29;20493;-71
2021/10/02 10:13:13;;;;;;;0.47;0.10;;;;;;;-142.37;100.00;59669.53;4914920;29;20040;-71
2021/10/02 10:15:42;;;;;;;0.05;0.00;;;;;;;-142.37;100.00;59669.53;4899191;29;20392;-70
2021/10/02 10:18:11;;;;;;;0.20;0.10;;;;;;;-142.37;100.00;59669.53;4915080;29;20379;-72
2021/10/02 10:21:04;;;;;;;0.47;0.30;;;;;;;-142.37;100.00;59669.53;4915346;29;20079;-71
2021/10/02 10:23:39;;;;;;;0.75;0.10;;;;;;;-142.37;100.00;59669.53;4858814;29;20528;-71
2021/10/02 10:26:05;;;;;;;0.80;0.20;;;;;;;-142.37;100.00;59669.53;4858931;29;20090;-70
2021/10/02 10:28:32;;;;;;;0.10;0.10;;;;;;;-142.37;100.00;59669.53;4858685;29;20042;-71
2021/10/02 10:31:32;;;;;;;1.17;0.22;;;;;;;-142.37;100.00;59669.53;4859696;29;20041;-71
2021/10/02 10:33:58;;;;;;;0.95;0.17;;;;;;;-142.37;100.00;59669.53;4896002;29;20132;-70
2021/10/02 10:36:28;;;;;;;0.40;0.22;;;;;;;-142.37;100.00;59669.53;4880491;29;20107;-72
2021/10/02 10:38:54;;;;;;;0.70;0.15;;;;;;;-142.37;100.00;59669.53;4896121;29;20064;-71
2021/10/02 10:41:22;;;;;;;0.88;0.28;;;;;;;-142.37;100.00;59669.53;4895813;29;20160;-71
2021/10/02 10:43:49;;;;;;;0.52;0.20;;;;;;;-142.37;100.00;59669.53;4896748;29;20424;-71
2021/10/02 10:46:19;;;;;;;0.75;0.20;;;;;;;-142.37;100.00;59669.53;4881027;29;20694;-71
2021/10/02 10:48:44;;;;;;;0.30;0.20;;;;;;;-142.37;100.00;59669.53;4880736;29;20056;-71
2021/10/02 10:51:13;;;;;;;0.50;0.10;;;;;;;-142.37;100.00;59669.53;4880791;29;20105;-71
2021/10/02 10:53:41;;;;;;;0.68;0.22;;;;;;;-142.37;100.00;59669.53;4880830;29;20045;-71
2021/10/02 10:56:10;;;;;;;1.30;0.20;;;;;;;-142.37;100.00;59669.53;4880819;29;20112;-70
2021/10/02 10:58:37;;;;;;;0.70;0.20;;;;;;;-142.37;100.00;59669.53;4880595;29;20028;-71
2021/10/02 11:01:07;;;;;;;0.90;0.35;;;;;;;-142.37;100.00;59669.53;4960879;28;20053;-71
2021/10/02 11:03:36;;;;;;;0.32;0.20;;;;;;;-142.37;100.00;59669.53;4977794;28;20113;-71
2021/10/02 11:06:03;;;;;;;1.35;0.30;;;;;;;-142.37;100.00;59669.53;4960355;28;20107;-70
2021/10/02 11:08:56;;;;;;;0.20;0.20;;;;;;;-142.37;100.00;59669.53;4977808;28;20350;-71
2021/10/02 11:11:51;;;;;;;1.08;0.17;;;;;;;-142.37;100.00;59669.53;4977393;28;20027;-69
2021/10/02 11:14:43;;;;;;;;;;;;;;;-142.37;100.00;59669.53;4977564;28;20047;-70
2021/10/02 11:17:08;;;;;;;0.60;0.20;;;;;;;-142.37;100.00;59669.53;4975030;28;20266;-69
2021/10/02 11:19:36;;;;;;;0.90;0.10;;;;;;;-142.37;100.00;59669.53;4977748;28;20086;-70
2021/10/02 11:23:07;;;;;;;0.55;0.30;;;;;;;-142.37;100.00;59669.53;4977123;28;20035;-70
2021/10/02 11:25:34;;;;;;;0.30;0.13;;;;;;;-142.37;100.00;59669.53;4896043;29;20028;-71
2021/10/02 11:28:22;;;;;;;0.50;0.30;;;;;;;-142.37;100.00;59669.53;4898713;29;20039;-70
2021/10/02 11:30:51;;;;;;;0.30;0.20;;;;;;;-142.37;100.00;59669.53;4883257;29;20032;-72
2021/10/02 11:33:32;;;;;;;0.35;0.10;;;;;;;-142.37;100.00;59669.53;4898991;29;20032;-71
2021/10/02 11:35:57;;;;;;;0.82;0.20;;;;;;;-142.37;100.00;59669.53;4898665;29;20428;-70
2021/10/02 11:38:38;;;;;;;0.30;0.10;;;;;;;-142.37;100.00;59669.53;4898731;29;20035;-71
2021/10/02 11:41:23;;;;;;;0.25;0.20;;;;;;;-142.37;100.00;59669.53;4898238;29;20029;-71
2021/10/02 11:43:55;;;;;;;1.70;0.40;;;;;;;-142.37;100.00;59669.53;4884447;29;20067;-71
2021/10/02 11:46:25;;;;;;;0.70;0.40;;;;;;;-142.37;100.00;59669.53;4917494;29;20040;-70
2021/10/02 11:48:52;;;;;;;0.63;0.22;;;;;;;-142.37;100.00;59669.53;4917631;29;20488;-71
2021/10/02 11:51:22;;;;;;;0.45;0.15;;;;;;;-142.37;100.00;59669.53;4917462;29;20032;-71
2021/10/02 11:54:13;;;;;;;1.20;0.40;;;;;;;-142.37;100.00;59669.53;4917181;29;20032;-70
2021/10/02 11:56:41;;;;;;;0.85;0.45;;;;;;;-142.37;100.00;59669.53;4982871;28;20504;-71
2021/10/02 11:59:07;;;;;;;0.10;0.10;;;;;;;-142.37;100.00;59669.53;4996022;28;20028;-71
2021/10/02 12:01:39;;;;;;;0.82;0.38;;;;;;;-142.37;100.00;59669.53;4996098;28;20109;-71
2021/10/02 12:04:13;;;;;;;0.10;0.10;;;;;;;-142.37;100.00;59669.53;4996082;28;20037;-71
2021/10/02 12:06:41;;;;;;;;;;;;;;;-142.37;100.00;59669.53;4996410;28;20167;-70
2021/10/02 12:09:14;;;;;;;0.43;0.10;;;;;;;-142.37;100.00;59669.53;4996075;28;19952;-71
2021/10/02 12:11:46;;;;;;;0.30;0.15;;;;;;;-142.37;100.00;59669.53;4995976;28;20022;-71
2021/10/02 12:14:16;;;;;;;0.75;0.20;;;;;;;-142.37;100.00;59669.53;4995329;28;20042;-71
2021/10/02 12:16:42;;;;;;;0.85;0.30;;;;;;;-142.37;100.00;59669.53;4996020;28;20023;-71
2021/10/02 12:19:20;;;;;;;0.82;0.20;;;;;;;-142.37;100.00;59669.53;4995929;28;20030;-71
2021/10/02 12:21:45;;;;;;;0.63;0.20;;;;;;;-142.37;100.00;59669.53;4995924;28;20236;-72
2021/10/02 12:24:24;;;;;;;0.45;0.20;;;;;;;-142.37;100.00;59669.53;4996069;28;20022;-72
2021/10/02 12:26:53;;;;;;;1.20;0.25;;;;;;;-142.37;100.00;59669.53;4995779;28;20053;-71
2021/10/02 12:29:22;;;;;;;0.90;0.28;;;;;;;-142.37;100.00;59669.53;4995556;28;20022;-71
2021/10/02 12:31:59;;;;;;;0.68;0.30;;;;;;;-142.37;100.00;59669.53;4995676;28;20024;-71
2021/10/02 12:34:26;;;;;;;0.98;0.30;;;;;;;-142.37;100.00;59669.53;4995636;28;20034;-70
2021/10/02 12:36:56;;;;;;;1.02;0.20;;;;;;;-142.37;100.00;59669.53;4995658;28;20018;-71